Terminal Aerodrome Forecast
Issued by NWS

Home | Current Version | Previous Version | Text Only | Print | Product List | Glossary On
Versions: 1 2 3 4 5 6 7 8 9 10 11 12
265
FTUS43 KJKL 040203 AAA
TAFSME
TAF AMD
KSME 040203Z 0403/0424 30010KT P6SM BKN070
     FM040500 31006KT P6SM BKN020
     FM041400 31004KT P6SM SCT020=

USA.gov is the U.S. government's official web portal to all federal, state and local government web resources and services.